createdAt,value
2018-01-28T00:02:10.615Z,88.70
2018-01-28T00:04:36.563Z,88.60
2018-01-28T00:07:02.536Z,88.40
2018-01-28T00:09:28.469Z,88.40
2018-01-28T00:11:54.570Z,88.30
2018-01-28T00:14:20.552Z,88.10
2018-01-28T00:16:46.486Z,87.90
2018-01-28T00:19:12.483Z,87.80
2018-01-28T00:21:38.424Z,87.60
2018-01-28T00:24:04.375Z,87.00
2018-01-28T00:26:30.351Z,86.70
2018-01-28T00:28:56.287Z,86.60
2018-01-28T00:31:22.524Z,86.40
2018-01-28T00:33:48.459Z,86.20
2018-01-28T00:36:15.180Z,86.00
2018-01-28T00:38:41.121Z,86.00
2018-01-28T00:41:07.842Z,86.60
2018-01-28T00:43:33.777Z,86.60
2018-01-28T00:46:00.460Z,87.70
2018-01-28T00:48:26.542Z,87.70
2018-01-28T00:50:53.222Z,89.40
2018-01-28T00:53:19.209Z,89.40
2018-01-28T00:55:45.896Z,90.50
2018-01-28T00:58:11.868Z,90.50
2018-01-28T01:00:38.556Z,90.60
2018-01-28T01:03:04.500Z,90.60
2018-01-28T01:05:30.615Z,90.60
2018-01-28T01:07:56.569Z,90.60
2018-01-28T01:10:23.283Z,90.50
2018-01-28T01:12:49.212Z,90.50
2018-01-28T01:15:15.205Z,90.20
2018-01-28T01:17:41.179Z,89.50
2018-01-28T01:20:07.119Z,88.90
2018-01-28T01:22:33.199Z,88.10
2018-01-28T01:24:59.288Z,88.60
2018-01-28T01:27:25.222Z,88.70
2018-01-28T01:29:51.227Z,88.00
2018-01-28T01:32:17.180Z,87.90
2018-01-28T01:34:43.155Z,88.10
2018-01-28T01:37:09.097Z,88.20
2018-01-28T01:39:35.176Z,87.80
2018-01-28T01:42:01.856Z,87.80
2018-01-28T01:44:27.853Z,87.80
2018-01-28T01:46:54.533Z,88.60
2018-01-28T01:49:20.484Z,88.60
2018-01-28T01:51:46.467Z,88.70
2018-01-28T01:54:12.414Z,89.70
2018-01-28T01:56:38.524Z,89.20
2018-01-28T01:59:04.468Z,88.80
2018-01-28T02:01:30.463Z,88.30
2018-01-28T02:03:56.423Z,88.20
2018-01-28T02:06:22.370Z,88.90
2018-01-28T02:08:48.334Z,89.80
2018-01-28T02:11:14.278Z,90.30
2018-01-28T02:13:40.384Z,90.30
2018-01-28T02:16:06.329Z,89.60
2018-01-28T02:18:32.287Z,89.50
2018-01-28T02:20:58.240Z,89.10
2018-01-28T02:23:24.240Z,88.80
2018-01-28T02:25:50.344Z,88.20
2018-01-28T02:28:17.033Z,88.20
2018-01-28T02:30:43.136Z,88.10
2018-01-28T02:33:09.104Z,88.40
2018-01-28T02:35:35.084Z,89.00
2018-01-28T02:38:01.020Z,89.10
2018-01-28T02:40:26.975Z,89.10
2018-01-28T02:42:52.956Z,89.00
2018-01-28T02:45:18.904Z,88.90
2018-01-28T02:47:44.911Z,88.60
2018-01-28T02:50:10.835Z,88.90
2018-01-28T02:52:36.836Z,88.70
2018-01-28T02:55:02.765Z,88.50
2018-01-28T02:57:28.708Z,88.70
2018-01-28T02:59:54.685Z,89.40
2018-01-28T03:02:20.628Z,90.00
2018-01-28T03:04:46.712Z,90.10
2018-01-28T03:07:13.432Z,89.70
2018-01-28T03:09:39.411Z,89.70
2018-01-28T03:12:05.344Z,89.50
2018-01-28T03:14:31.321Z,89.50
2018-01-28T03:16:58.006Z,89.50
2018-01-28T03:19:23.960Z,89.50
2018-01-28T03:21:50.059Z,89.40
2018-01-28T03:24:16.162Z,90.00
2018-01-28T03:26:42.138Z,90.30
2018-01-28T03:29:08.071Z,90.40
2018-01-28T03:31:34.013Z,90.50
2018-01-28T03:34:00.804Z,90.50
2018-01-28T03:36:26.728Z,90.50
2018-01-28T03:38:52.807Z,90.40
2018-01-28T03:41:18.751Z,90.30
2018-01-28T03:43:44.703Z,90.20
2018-01-28T03:46:10.667Z,90.30
2018-01-28T03:48:36.651Z,90.30
2018-01-28T03:51:02.580Z,90.20
2018-01-28T03:53:28.515Z,90.20
2018-01-28T03:55:55.322Z,90.00
2018-01-28T03:58:21.267Z,90.00
2018-01-28T04:00:47.987Z,90.30
2018-01-28T04:03:13.940Z,90.00
2018-01-28T04:05:40.636Z,90.00
2018-01-28T04:08:06.592Z,90.00
2018-01-28T04:10:33.304Z,90.00
2018-01-28T04:12:59.379Z,89.90
2018-01-28T04:15:25.311Z,90.00
2018-01-28T04:17:51.280Z,90.00
2018-01-28T04:20:17.216Z,90.00
2018-01-28T04:22:43.188Z,90.00
2018-01-28T04:25:09.274Z,90.00
2018-01-28T04:27:35.955Z,90.10
2018-01-28T04:30:02.016Z,90.00
2018-01-28T04:32:27.958Z,90.00
2018-01-28T04:34:54.663Z,90.10
2018-01-28T04:37:20.596Z,90.10
2018-01-28T04:39:46.562Z,90.20
2018-01-28T04:42:12.495Z,90.10
2018-01-28T04:44:38.433Z,90.00
2018-01-28T04:47:04.509Z,89.60
2018-01-28T04:49:31.178Z,89.80
2018-01-28T04:51:57.156Z,89.80
2018-01-28T04:54:23.123Z,89.50
2018-01-28T04:56:49.095Z,89.30
2018-01-28T04:59:15.080Z,88.90
2018-01-28T05:01:41.073Z,88.90
2018-01-28T05:04:07.170Z,88.70
2018-01-28T05:06:33.892Z,88.20
2018-01-28T05:08:59.820Z,88.20
2018-01-28T05:11:33.451Z,88.20
2018-01-28T05:14:00.171Z,88.00
2018-01-28T05:16:26.137Z,88.00
2018-01-28T05:18:55.158Z,87.50
2018-01-28T05:21:21.316Z,87.20
2018-01-28T05:23:48.428Z,86.80
2018-01-28T05:26:15.975Z,86.80
2018-01-28T05:28:42.292Z,86.70
2018-01-28T05:31:08.223Z,86.00
2018-01-28T05:33:34.217Z,85.90
2018-01-28T05:36:00.152Z,86.00
2018-01-28T05:38:26.105Z,85.10
2018-01-28T05:40:52.254Z,85.80
2018-01-28T05:43:18.188Z,85.30
2018-01-28T05:45:44.143Z,84.90
2018-01-28T05:48:10.826Z,85.00
2018-01-28T05:50:36.811Z,85.00
2018-01-28T05:53:02.733Z,84.80
2018-01-28T05:55:28.659Z,84.90
2018-01-28T05:57:54.719Z,84.80
2018-01-28T06:00:20.657Z,84.80
2018-01-28T06:02:46.616Z,84.50
2018-01-28T06:05:12.563Z,84.80
2018-01-28T06:07:38.536Z,84.20
2018-01-28T06:10:05.226Z,84.20
2018-01-28T06:12:31.168Z,84.20
2018-01-28T06:14:57.265Z,83.60
2018-01-28T06:17:23.196Z,83.70
2018-01-28T06:19:49.163Z,83.30
2018-01-28T06:22:15.095Z,83.70
2018-01-28T06:24:41.169Z,84.20
2018-01-28T06:27:07.134Z,84.30
2018-01-28T06:29:33.816Z,83.80
2018-01-28T06:31:59.915Z,83.90
2018-01-28T06:34:25.853Z,83.30
2018-01-28T06:36:51.830Z,83.20
2018-01-28T06:39:17.797Z,83.50
2018-01-28T06:41:43.766Z,83.20
2018-01-28T06:44:09.723Z,83.30
2018-01-28T06:46:35.690Z,83.20
2018-01-28T06:49:01.797Z,82.70
2018-01-28T06:51:27.740Z,82.60
2018-01-28T06:53:53.733Z,83.30
2018-01-28T06:56:19.679Z,83.20
2018-01-28T06:58:45.631Z,82.80
2018-01-28T07:01:12.357Z,82.60
2018-01-28T07:03:38.299Z,82.40
2018-01-28T07:06:05.129Z,81.70
2018-01-28T07:08:31.056Z,81.70
2018-01-28T07:10:57.784Z,81.50
2018-01-28T07:13:23.731Z,81.50
2018-01-28T07:15:50.399Z,81.60
2018-01-28T07:18:16.355Z,81.50
2018-01-28T07:20:42.456Z,81.20
2018-01-28T07:23:08.432Z,81.50
2018-01-28T07:25:35.261Z,82.20
2018-01-28T07:28:01.235Z,82.20
2018-01-28T07:30:27.163Z,80.60
2018-01-28T07:32:53.159Z,81.70
2018-01-28T07:35:19.105Z,80.90
2018-01-28T07:37:45.053Z,80.40
2018-01-28T07:40:11.167Z,81.10
2018-01-28T07:42:37.738Z,80.50
2018-01-28T07:45:08.845Z,80.30
2018-01-28T07:47:36.001Z,80.30
2018-01-28T07:50:05.760Z,80.70
2018-01-28T07:52:37.277Z,80.80
2018-01-28T07:55:03.910Z,79.80
2018-01-28T07:57:35.659Z,79.40
2018-01-28T08:00:02.505Z,79.60
2018-01-28T08:02:29.504Z,80.00
2018-01-28T08:04:57.682Z,79.30
2018-01-28T08:07:28.772Z,79.40
2018-01-28T08:09:54.723Z,79.20
2018-01-28T08:12:31.903Z,79.00
2018-01-28T08:15:07.293Z,79.20
2018-01-28T08:17:44.844Z,79.20
2018-01-28T08:20:19.003Z,78.20
2018-01-28T08:23:01.606Z,78.20
2018-01-28T08:25:35.846Z,78.40
2018-01-28T08:28:09.945Z,78.40
2018-01-28T08:30:48.540Z,77.70
2018-01-28T08:33:14.733Z,78.30
2018-01-28T08:35:41.464Z,78.60
2018-01-28T08:38:07.411Z,78.60
2018-01-28T08:40:34.168Z,78.60
2018-01-28T08:43:00.092Z,77.90
2018-01-28T08:45:26.125Z,77.40
2018-01-28T08:47:52.182Z,77.60
2018-01-28T08:50:18.126Z,76.90
2018-01-28T08:52:44.862Z,77.30
2018-01-28T08:55:10.837Z,77.30
2018-01-28T08:57:36.832Z,77.40
2018-01-28T09:00:03.407Z,77.00
2018-01-28T09:02:38.569Z,77.10
2018-01-28T09:05:04.665Z,77.60
2018-01-28T09:07:32.839Z,77.20
2018-01-28T09:09:59.552Z,76.60
2018-01-28T09:12:25.507Z,76.50
2018-01-28T09:14:51.493Z,77.00
2018-01-28T09:17:17.469Z,76.20
2018-01-28T09:19:43.613Z,76.60
2018-01-28T09:22:10.306Z,76.70
2018-01-28T09:24:36.446Z,76.60
2018-01-28T09:27:02.450Z,76.60
2018-01-28T09:29:28.435Z,76.50
2018-01-28T09:31:54.432Z,76.40
2018-01-28T09:34:20.375Z,76.70
2018-01-28T09:36:47.089Z,74.20
2018-01-28T09:39:13.742Z,74.20
2018-01-28T09:41:40.487Z,74.80
2018-01-28T09:44:07.487Z,75.10
2018-01-28T09:46:33.522Z,75.10
2018-01-28T09:49:03.329Z,75.20
2018-01-28T09:51:29.345Z,74.50
2018-01-28T09:53:55.413Z,74.50
2018-01-28T09:56:22.481Z,75.10
2018-01-28T09:58:48.702Z,75.10
2018-01-28T10:01:15.476Z,74.80
2018-01-28T10:03:41.502Z,74.80
2018-01-28T10:06:07.549Z,73.50
2018-01-28T10:08:33.587Z,73.70
2018-01-28T10:10:59.578Z,73.90
2018-01-28T10:13:25.742Z,73.80
2018-01-28T10:15:52.747Z,74.60
2018-01-28T10:18:20.039Z,74.60
2018-01-28T10:20:46.953Z,73.80
2018-01-28T10:23:13.777Z,73.80
2018-01-28T10:25:39.951Z,74.20
2018-01-28T10:28:08.411Z,73.50
2018-01-28T10:30:34.820Z,73.50
2018-01-28T10:33:00.859Z,73.80
2018-01-28T10:35:27.105Z,73.20
2018-01-28T10:37:53.974Z,73.10
2018-01-28T10:40:20.068Z,72.80
2018-01-28T10:42:48.020Z,72.90
2018-01-28T10:45:14.213Z,72.90
2018-01-28T10:47:40.813Z,73.60
2018-01-28T10:50:07.943Z,73.50
2018-01-28T10:52:34.235Z,74.00
2018-01-28T10:55:00.470Z,74.20
2018-01-28T10:57:26.974Z,74.10
2018-01-28T10:59:54.051Z,73.50
2018-01-28T11:02:21.259Z,74.00
2018-01-28T11:04:47.678Z,74.40
2018-01-28T11:07:13.985Z,74.80
2018-01-28T11:09:41.930Z,76.20
2018-01-28T11:12:08.838Z,75.80
2018-01-28T11:14:36.623Z,76.50
2018-01-28T11:17:02.674Z,76.40
2018-01-28T11:19:28.989Z,76.50
2018-01-28T11:21:56.927Z,77.30
2018-01-28T11:24:26.160Z,76.90
2018-01-28T11:26:55.234Z,76.80
2018-01-28T11:29:21.268Z,77.50
2018-01-28T11:31:48.744Z,77.30
2018-01-28T11:34:15.226Z,77.10
2018-01-28T11:36:41.608Z,77.10
2018-01-28T11:39:09.672Z,77.60
2018-01-28T11:41:35.913Z,77.60
2018-01-28T11:44:02.773Z,77.20
2018-01-28T11:46:31.454Z,77.80
2018-01-28T11:48:58.405Z,78.30
2018-01-28T11:51:24.661Z,78.00
2018-01-28T11:53:51.551Z,77.90
2018-01-28T11:56:17.524Z,77.60
2018-01-28T11:58:43.807Z,77.50
2018-01-28T12:01:11.804Z,78.80
2018-01-28T12:03:39.855Z,77.00
2018-01-28T12:06:06.784Z,76.60
2018-01-28T12:08:34.757Z,75.80
2018-01-28T12:11:02.145Z,76.60
2018-01-28T12:13:34.221Z,76.60
2018-01-28T12:16:11.183Z,76.50
2018-01-28T12:18:38.491Z,76.10
2018-01-28T12:21:06.361Z,76.30
2018-01-28T12:23:32.612Z,76.30
2018-01-28T12:25:58.909Z,76.30
2018-01-28T12:28:26.109Z,77.90
2018-01-28T12:30:52.105Z,78.00
2018-01-28T12:33:18.112Z,78.40
2018-01-28T12:35:44.486Z,78.60
2018-01-28T12:38:10.540Z,78.40
2018-01-28T12:40:37.874Z,77.90
2018-01-28T12:43:06.179Z,78.50
2018-01-28T12:45:35.709Z,78.60
2018-01-28T12:48:02.317Z,77.10
2018-01-28T12:50:28.326Z,77.30
2018-01-28T12:52:57.684Z,78.00
2018-01-28T12:55:25.257Z,77.90
2018-01-28T12:57:54.833Z,78.30
2018-01-28T13:00:23.136Z,78.30
2018-01-28T13:02:52.841Z,76.80
2018-01-28T13:05:22.467Z,76.80
2018-01-28T13:07:53.604Z,76.90
2018-01-28T13:10:27.109Z,76.60
2018-01-28T13:12:54.513Z,76.70
2018-01-28T13:15:24.305Z,78.10
2018-01-28T13:17:55.360Z,78.40
2018-01-28T13:20:23.675Z,77.40
2018-01-28T13:22:54.889Z,77.40
2018-01-28T13:25:25.452Z,77.70
2018-01-28T13:27:53.679Z,76.80
2018-01-28T13:30:27.872Z,76.50
2018-01-28T13:32:55.616Z,76.10
2018-01-28T13:35:24.809Z,75.80
2018-01-28T13:37:54.565Z,75.00
2018-01-28T13:40:23.082Z,75.00
2018-01-28T13:42:51.385Z,75.40
2018-01-28T13:45:21.352Z,74.70
2018-01-28T13:47:51.511Z,74.70
2018-01-28T13:50:19.660Z,74.70
2018-01-28T13:52:49.702Z,75.20
2018-01-28T13:55:17.340Z,75.60
2018-01-28T13:57:44.426Z,76.00
2018-01-28T14:00:14.536Z,75.30
2018-01-28T14:02:42.864Z,74.70
2018-01-28T14:05:12.831Z,75.20
2018-01-28T14:07:41.439Z,74.70
2018-01-28T14:10:11.079Z,75.10
2018-01-28T14:12:40.633Z,75.90
2018-01-28T14:15:09.416Z,76.50
2018-01-28T14:17:37.558Z,76.60
2018-01-28T14:20:06.768Z,76.40
2018-01-28T14:22:34.846Z,76.00
2018-01-28T14:25:03.236Z,76.20
2018-01-28T14:27:32.422Z,76.50
2018-01-28T14:30:01.805Z,76.50
2018-01-28T14:32:30.399Z,76.80
2018-01-28T14:34:58.602Z,77.80
2018-01-28T14:37:27.098Z,78.10
2018-01-28T14:39:56.788Z,78.50
2018-01-28T14:42:24.756Z,78.60
2018-01-28T14:44:52.363Z,78.50
2018-01-28T14:47:19.438Z,78.30
2018-01-28T14:49:46.891Z,78.30
2018-01-28T14:52:15.906Z,77.60
2018-01-28T14:54:44.983Z,78.00
2018-01-28T14:57:15.028Z,77.70
2018-01-28T14:59:42.587Z,78.00
2018-01-28T15:02:11.584Z,78.50
2018-01-28T15:04:58.794Z,78.50
2018-01-28T15:07:30.878Z,78.60
2018-01-28T15:09:59.150Z,77.70
2018-01-28T15:12:28.549Z,78.30
2018-01-28T15:14:57.045Z,78.40
2018-01-28T15:17:25.205Z,79.60
2018-01-28T15:37:36.274Z,83.00
2018-01-28T15:40:02.246Z,83.00
2018-01-28T15:42:28.707Z,83.10
2018-01-28T15:44:55.920Z,83.00
2018-01-28T19:11:34.453Z,75.10
2018-01-28T19:14:00.456Z,75.30
2018-01-28T19:16:26.417Z,76.00
2018-01-28T19:19:36.720Z,76.10
2018-01-28T19:22:02.956Z,76.20
2018-01-28T19:24:28.962Z,77.90
2018-01-28T19:26:54.935Z,79.00
2018-01-28T19:29:20.924Z,79.20
2018-01-28T19:31:46.920Z,79.80
2018-01-28T19:34:13.759Z,80.20
2018-01-28T19:36:40.466Z,80.60
2018-01-28T19:39:06.466Z,80.60
2018-01-28T19:41:32.443Z,80.70
2018-01-28T19:43:59.167Z,80.50
2018-01-28T19:46:25.928Z,80.50
2018-01-28T19:48:52.637Z,80.30
2018-01-28T19:51:18.742Z,80.20
2018-01-28T19:53:44.715Z,80.10
2018-01-28T19:56:11.436Z,80.10
2018-01-28T19:58:37.403Z,80.20
2018-01-28T20:01:03.367Z,81.20
2018-01-28T20:03:29.353Z,81.10
2018-01-28T20:05:55.491Z,81.00
2018-01-28T20:08:21.477Z,81.00
2018-01-28T20:10:47.473Z,80.80
2018-01-28T20:13:13.423Z,81.30
2018-01-28T20:15:39.423Z,80.70
2018-01-28T20:18:06.104Z,81.70
2018-01-28T20:20:32.085Z,81.50
2018-01-28T20:23:07.913Z,81.20
2018-01-28T20:25:41.902Z,81.10
2018-01-28T20:28:15.405Z,81.10
2018-01-28T20:30:49.016Z,81.30
2018-01-28T20:33:38.619Z,81.30
2018-01-28T20:36:28.542Z,81.40
2018-01-28T20:39:18.523Z,81.30
2018-01-28T20:42:08.665Z,81.80
2018-01-28T20:44:58.157Z,81.70
2018-01-28T20:47:48.462Z,81.80
2018-01-28T20:50:38.195Z,81.80
2018-01-28T20:53:27.432Z,81.70
2018-01-28T20:56:16.525Z,81.70
2018-01-28T20:59:06.139Z,81.80
2018-01-28T21:01:57.073Z,82.10
2018-01-28T21:04:47.588Z,82.30
2018-01-28T21:07:37.387Z,81.90
2018-01-28T21:10:27.550Z,81.70
2018-01-28T21:13:16.861Z,81.60
2018-01-28T21:16:06.438Z,81.40
2018-01-28T21:18:32.702Z,81.90
2018-01-28T21:20:59.395Z,81.90
2018-01-28T21:23:25.350Z,81.90
2018-01-28T21:25:52.093Z,81.70
2018-01-28T21:28:18.789Z,81.60
2018-01-28T21:30:44.783Z,81.60
2018-01-28T21:33:10.959Z,81.50
2018-01-28T21:35:37.009Z,81.20
2018-01-28T21:38:03.680Z,81.00
2018-01-28T21:40:29.675Z,81.00
2018-01-28T21:42:56.422Z,81.00
2018-01-28T21:45:22.392Z,80.90
2018-01-28T21:47:48.504Z,80.90
2018-01-28T21:50:14.436Z,80.60
2018-01-28T21:52:40.385Z,80.50
2018-01-28T21:55:06.370Z,80.40
2018-01-28T21:57:32.331Z,80.60
2018-01-28T21:59:59.055Z,80.40
2018-01-28T22:02:25.004Z,80.40
2018-01-28T22:04:51.854Z,80.10
2018-01-28T22:07:17.793Z,80.10
2018-01-28T22:09:43.728Z,80.10
2018-01-28T22:12:09.717Z,79.80
2018-01-28T22:14:35.668Z,79.80
2018-01-28T22:17:01.660Z,79.90
2018-01-28T22:19:28.348Z,80.00
2018-01-28T22:21:54.303Z,80.10
2018-01-28T22:24:20.299Z,80.00
2018-01-28T22:26:46.260Z,80.00
2018-01-28T22:29:13.136Z,80.00
2018-01-28T22:31:39.068Z,80.00
2018-01-28T22:34:05.016Z,79.80
2018-01-28T22:36:31.013Z,79.90
2018-01-28T22:38:56.983Z,80.00
2018-01-28T22:41:23.683Z,80.00
2018-01-28T22:43:49.647Z,80.00
2018-01-28T22:46:16.348Z,80.00
2018-01-28T22:48:42.462Z,79.80
2018-01-28T22:51:08.411Z,79.80
2018-01-28T22:53:34.457Z,79.60
2018-01-28T22:56:01.147Z,79.70
2018-01-28T22:58:27.102Z,79.70
2018-01-28T23:00:53.067Z,79.70
2018-01-28T23:03:19.023Z,79.60
2018-01-28T23:05:44.991Z,79.50
2018-01-28T23:08:11.685Z,79.60
2018-01-28T23:10:37.804Z,79.60
2018-01-28T23:13:03.747Z,79.60
2018-01-28T23:15:29.691Z,79.70
2018-01-28T23:17:56.420Z,80.00
2018-01-28T23:20:23.104Z,80.60
2018-01-28T23:22:49.048Z,80.60
2018-01-28T23:25:15.139Z,80.60
2018-01-28T23:27:41.096Z,80.40
2018-01-28T23:30:07.159Z,80.50
2018-01-28T23:32:33.844Z,80.30
2018-01-28T23:34:59.822Z,80.30
2018-01-28T23:37:25.800Z,80.50
2018-01-28T23:39:51.770Z,80.70
2018-01-28T23:42:17.714Z,80.70
2018-01-28T23:44:43.659Z,80.70
2018-01-28T23:47:09.799Z,80.70
2018-01-28T23:49:35.765Z,80.70
2018-01-28T23:52:02.435Z,82.20
2018-01-28T23:54:28.389Z,82.10
2018-01-28T23:56:54.455Z,82.40
2018-01-28T23:59:20.402Z,82.80
